Time;durP1;ratioP1;P1;durP2;ratioP2;P2;SDS_P1;SDS_P2;PMS_P1;PMS_P2;Temp;Humidity;BMP_temperature;BMP_pressure;BME280_temperature;BME280_humidity;BME280_pressure;Samples;Min_cycle;Max_cycle;Signal;HPM_P1;HPM_P2
2021/09/21 00:02:02;;;;;;;18.65;14.85;;;13.70;94.00;;;;;;5063444;28;20533;-59
2021/09/21 00:04:28;;;;;;;21.75;16.27;;;13.70;93.90;;;;;;5063670;28;20052;-59
2021/09/21 00:06:56;;;;;;;25.52;16.67;;;13.70;94.00;;;;;;5065086;28;20139;-59
2021/09/21 00:09:23;;;;;;;22.55;17.52;;;13.60;94.00;;;;;;5065733;28;20482;-59
2021/09/21 00:11:51;;;;;;;21.38;16.63;;;13.60;94.10;;;;;;5066632;28;20088;-59
2021/09/21 00:14:19;;;;;;;21.83;16.20;;;13.50;94.20;;;;;;5066910;28;20396;-60
2021/09/21 00:16:45;;;;;;;23.00;17.25;;;13.50;94.20;;;;;;5066072;28;20168;-59
2021/09/21 00:19:12;;;;;;;24.38;17.48;;;13.40;94.00;;;;;;5064209;28;20086;-59
2021/09/21 00:21:39;;;;;;;23.38;18.30;;;13.40;93.90;;;;;;5064604;28;20314;-60
2021/09/21 00:24:05;;;;;;;23.92;18.83;;;13.20;93.70;;;;;;5063621;28;20082;-60
2021/09/21 00:26:32;;;;;;;21.58;18.02;;;13.20;93.90;;;;;;5063793;28;20091;-59
2021/09/21 00:29:00;;;;;;;23.75;18.33;;;13.10;93.80;;;;;;5063313;28;20507;-59
2021/09/21 00:31:37;;;;;;;23.95;17.80;;;13.10;93.90;;;;;;5063336;28;20114;-60
2021/09/21 00:34:10;;;;;;;21.45;16.60;;;13.00;94.00;;;;;;5063573;28;20076;-59
2021/09/21 00:36:37;;;;;;;24.05;17.05;;;13.00;94.00;;;;;;5061648;28;20068;-60
2021/09/21 00:39:05;;;;;;;20.83;18.02;;;13.00;94.20;;;;;;5061661;28;20144;-59
2021/09/21 00:41:35;;;;;;;19.15;15.27;;;13.00;94.00;;;;;;5063796;28;20136;-59
2021/09/21 00:44:02;;;;;;;25.20;18.13;;;12.90;94.20;;;;;;5062956;28;20139;-59
2021/09/21 00:46:28;;;;;;;23.35;17.25;;;12.90;94.10;;;;;;5063133;28;20093;-60
2021/09/21 00:48:55;;;;;;;21.60;16.95;;;12.90;94.10;;;;;;5062351;28;20164;-59
2021/09/21 00:51:23;;;;;;;22.35;17.17;;;12.80;94.10;;;;;;5064144;28;20543;-59
2021/09/21 00:53:51;;;;;;;23.13;17.70;;;12.80;94.20;;;;;;5062499;28;20147;-59
2021/09/21 00:56:18;;;;;;;24.55;18.27;;;12.80;94.00;;;;;;5045498;28;20107;-59
2021/09/21 00:58:44;;;;;;;23.70;18.15;;;12.70;93.90;;;;;;5045254;28;20076;-59
2021/09/21 01:01:11;;;;;;;26.27;17.88;;;12.70;94.00;;;;;;5063454;28;20127;-59
2021/09/21 01:03:38;;;;;;;22.63;16.27;;;12.70;94.00;;;;;;5061771;28;20060;-59
2021/09/21 01:06:05;;;;;;;21.60;14.45;;;12.60;94.10;;;;;;5063133;28;20088;-59
2021/09/21 01:08:32;;;;;;;21.55;16.20;;;12.60;93.80;;;;;;5061934;28;20558;-59
2021/09/21 01:10:59;;;;;;;22.27;17.15;;;12.60;93.90;;;;;;5063038;28;20122;-59
2021/09/21 01:13:25;;;;;;;22.65;17.17;;;12.50;93.90;;;;;;5062243;28;20155;-59
2021/09/21 01:15:52;;;;;;;26.52;18.42;;;12.50;94.20;;;;;;5063181;28;20082;-59
2021/09/21 01:18:19;;;;;;;23.30;18.25;;;12.50;94.10;;;;;;5062280;28;20234;-59
2021/09/21 01:20:46;;;;;;;22.15;16.63;;;12.40;94.30;;;;;;5046230;28;20487;-59
2021/09/21 01:23:12;;;;;;;26.55;18.13;;;12.40;94.30;;;;;;5062210;28;20483;-59
2021/09/21 01:25:39;;;;;;;22.95;17.02;;;12.50;94.40;;;;;;5062717;28;20143;-59
2021/09/21 01:28:06;;;;;;;22.95;16.27;;;12.50;94.20;;;;;;5061900;28;20486;-59
2021/09/21 01:30:33;;;;;;;20.98;15.93;;;12.50;94.70;;;;;;5062969;28;20541;-59
2021/09/21 01:33:01;;;;;;;17.98;14.63;;;12.60;94.60;;;;;;5062601;28;20131;-60
2021/09/21 01:35:28;;;;;;;20.25;15.15;;;12.60;94.50;;;;;;5064562;28;20095;-60
2021/09/21 01:37:54;;;;;;;14.55;11.88;;;12.70;94.60;;;;;;5063971;28;20079;-59
2021/09/21 01:40:21;;;;;;;18.27;14.35;;;12.80;94.20;;;;;;5063070;28;20044;-59
2021/09/21 01:42:49;;;;;;;22.08;16.42;;;12.90;94.40;;;;;;5064403;28;20135;-59
2021/09/21 01:45:16;;;;;;;21.75;16.02;;;12.90;94.50;;;;;;5064671;28;20084;-59
2021/09/21 01:47:47;;;;;;;23.17;16.33;;;13.00;94.40;;;;;;5063537;28;20135;-59
2021/09/21 01:52:49;;;;;;;19.52;15.65;;;13.10;94.40;;;;;;5046440;28;20123;-59
2021/09/21 02:00:46;;;;;;;18.20;15.05;;;13.10;94.10;;;;;;5064135;28;20044;-58
2021/09/21 02:03:13;;;;;;;19.48;14.80;;;13.10;93.90;;;;;;5063426;28;20132;-58
2021/09/21 02:05:40;;;;;;;20.75;16.23;;;13.10;94.00;;;;;;5064514;28;20041;-59
2021/09/21 02:08:07;;;;;;;17.90;14.55;;;13.00;93.90;;;;;;5063553;28;20152;-59
2021/09/21 02:10:34;;;;;;;22.77;17.25;;;13.00;93.90;;;;;;5062568;28;20080;-59
2021/09/21 02:13:00;;;;;;;17.65;15.13;;;12.90;93.90;;;;;;5062471;28;20127;-59
2021/09/21 02:15:31;;;;;;;21.00;15.73;;;12.90;93.90;;;;;;5063348;28;20076;-58
2021/09/21 02:17:59;;;;;;;19.15;14.60;;;12.80;93.60;;;;;;5062652;28;20094;-58
2021/09/21 02:20:27;;;;;;;21.20;15.98;;;12.70;94.20;;;;;;5061987;28;20094;-59
2021/09/21 02:22:54;;;;;;;19.63;15.43;;;12.60;93.90;;;;;;5063564;28;20049;-60
2021/09/21 02:25:21;;;;;;;21.30;16.63;;;12.60;93.90;;;;;;5061609;28;20076;-59
2021/09/21 02:27:47;;;;;;;22.92;14.88;;;12.60;93.90;;;;;;5062243;28;20083;-61
2021/09/21 02:30:14;;;;;;;20.55;15.50;;;12.50;94.00;;;;;;5062725;28;20119;-60
2021/09/21 02:32:41;;;;;;;24.13;16.38;;;12.50;94.00;;;;;;5062876;28;20095;-59
2021/09/21 02:35:08;;;;;;;21.63;16.40;;;12.40;94.10;;;;;;5063694;28;20084;-60
2021/09/21 02:37:34;;;;;;;22.33;15.60;;;12.40;94.00;;;;;;5063027;28;20076;-59
2021/09/21 02:40:03;;;;;;;23.15;15.02;;;12.40;94.10;;;;;;5045057;28;20083;-59
2021/09/21 02:42:30;;;;;;;20.80;15.75;;;12.30;94.10;;;;;;5029517;28;20124;-59
2021/09/21 02:44:56;;;;;;;17.70;14.98;;;12.30;93.80;;;;;;5062405;28;20131;-59
2021/09/21 02:47:23;;;;;;;22.38;16.15;;;12.20;93.90;;;;;;5062502;28;20127;-59
2021/09/21 02:49:50;;;;;;;20.60;15.13;;;12.10;93.90;;;;;;5061870;28;20131;-59
2021/09/21 02:52:16;;;;;;;20.98;15.20;;;12.10;94.00;;;;;;5064048;28;20123;-59
2021/09/21 02:54:43;;;;;;;17.88;14.85;;;12.10;94.10;;;;;;5063155;28;20155;-60
2021/09/21 02:57:10;;;;;;;21.25;15.05;;;12.10;94.10;;;;;;5064704;28;20539;-60
2021/09/21 02:59:37;;;;;;;23.27;15.27;;;12.00;93.90;;;;;;5062937;28;20135;-59
2021/09/21 03:02:03;;;;;;;21.13;14.98;;;12.00;94.00;;;;;;5064291;28;20123;-60
2021/09/21 03:04:35;;;;;;;21.95;14.93;;;12.00;94.10;;;;;;5068166;28;20052;-59
2021/09/21 03:07:05;;;;;;;18.45;13.80;;;11.90;94.10;;;;;;5067771;28;20550;-60
2021/09/21 03:12:16;;;;;;;20.48;15.90;;;11.90;93.80;;;;;;5049980;28;20048;-59
2021/09/21 03:17:28;;;;;;;19.67;15.18;;;11.80;94.10;;;;;;5066672;28;20850;-59
2021/09/21 03:19:56;;;;;;;18.30;14.80;;;11.80;94.00;;;;;;5067648;28;20052;-59
2021/09/21 03:22:23;;;;;;;19.20;14.45;;;11.80;94.20;;;;;;5033568;28;20079;-59
2021/09/21 03:24:50;;;;;;;17.20;14.05;;;11.70;94.10;;;;;;5066837;28;20147;-60
2021/09/21 03:27:17;;;;;;;18.60;13.18;;;11.70;93.70;;;;;;5067882;28;20048;-59
2021/09/21 03:29:44;;;;;;;21.00;14.35;;;11.70;93.60;;;;;;5066870;28;20076;-60
2021/09/21 03:32:11;;;;;;;19.15;14.68;;;11.70;93.70;;;;;;5066664;28;20083;-59
2021/09/21 03:34:38;;;;;;;20.73;14.52;;;11.60;93.80;;;;;;5067055;28;20128;-59
2021/09/21 03:37:08;;;;;;;19.83;14.80;;;11.60;93.70;;;;;;5068046;28;20103;-59
2021/09/21 03:39:35;;;;;;;22.05;14.00;;;11.60;93.80;;;;;;5048947;28;20127;-59
2021/09/21 03:42:03;;;;;;;19.00;13.95;;;11.50;93.80;;;;;;5067216;28;20135;-59
2021/09/21 03:44:29;;;;;;;15.32;11.80;;;11.50;93.70;;;;;;5066311;28;20155;-59
2021/09/21 03:46:56;;;;;;;20.13;13.52;;;11.50;93.80;;;;;;5066651;28;20088;-59
2021/09/21 03:49:23;;;;;;;15.18;11.23;;;11.50;93.80;;;;;;5066758;28;20087;-59
2021/09/21 03:51:50;;;;;;;16.35;12.75;;;11.40;93.90;;;;;;5067302;28;20135;-59
2021/09/21 03:54:16;;;;;;;19.17;13.07;;;11.40;94.00;;;;;;5066443;28;20151;-58
2021/09/21 03:56:43;;;;;;;19.25;14.00;;;11.40;94.00;;;;;;5066998;28;20048;-59
2021/09/21 03:59:10;;;;;;;18.42;14.85;;;11.40;93.90;;;;;;5066561;28;20541;-59
2021/09/21 04:01:37;;;;;;;24.10;14.07;;;11.40;94.00;;;;;;5065529;28;20048;-59
2021/09/21 04:04:05;;;;;;;15.80;12.20;;;11.40;93.70;;;;;;5066651;28;20124;-59
2021/09/21 04:06:33;;;;;;;18.80;13.32;;;11.40;93.80;;;;;;5066462;28;20648;-59
2021/09/21 04:09:00;;;;;;;17.05;12.65;;;11.40;93.70;;;;;;5065545;28;20055;-59
2021/09/21 04:11:27;;;;;;;18.70;13.45;;;11.40;93.80;;;;;;5066763;28;20063;-58
2021/09/21 04:13:54;;;;;;;19.23;12.38;;;11.30;93.70;;;;;;5065092;28;20193;-59
2021/09/21 04:16:20;;;;;;;17.45;12.85;;;11.30;93.80;;;;;;5066287;28;20128;-59
2021/09/21 04:18:47;;;;;;;17.65;12.38;;;11.30;93.90;;;;;;5065447;28;20480;-59
2021/09/21 04:21:14;;;;;;;18.95;12.15;;;11.40;94.10;;;;;;5066835;28;20084;-59
2021/09/21 04:23:41;;;;;;;19.15;12.90;;;11.50;94.10;;;;;;5065735;28;20157;-59
2021/09/21 04:26:08;;;;;;;19.15;12.35;;;11.50;94.20;;;;;;5066627;28;20124;-60
2021/09/21 04:28:35;;;;;;;16.10;12.77;;;11.60;94.30;;;;;;5065699;28;20136;-60
2021/09/21 04:31:09;;;;;;;16.95;12.63;;;11.70;94.70;;;;;;5066507;28;20132;-59
2021/09/21 04:33:36;;;;;;;17.08;13.57;;;11.70;94.50;;;;;;5048883;28;20486;-59
2021/09/21 04:36:05;;;;;;;20.70;15.18;;;11.80;94.50;;;;;;5066789;28;20976;-59
2021/09/21 04:38:31;;;;;;;18.98;15.82;;;11.90;94.70;;;;;;5065861;28;20410;-59
2021/09/21 04:40:58;;;;;;;18.73;14.13;;;11.90;94.80;;;;;;5065706;28;20080;-59
2021/09/21 04:43:25;;;;;;;19.17;15.43;;;12.00;94.60;;;;;;5065683;28;20095;-59
2021/09/21 04:45:52;;;;;;;17.92;15.18;;;12.00;94.50;;;;;;5062738;28;20079;-59
2021/09/21 04:48:18;;;;;;;18.75;14.52;;;12.10;94.60;;;;;;5059936;28;20813;-59
2021/09/21 04:50:45;;;;;;;19.48;15.18;;;12.10;94.60;;;;;;5062389;28;20447;-59
2021/09/21 04:53:12;;;;;;;19.73;15.25;;;12.10;94.50;;;;;;5062886;28;20167;-59
2021/09/21 04:55:39;;;;;;;18.80;14.68;;;12.20;94.60;;;;;;5063081;28;20128;-59
2021/09/21 04:58:06;;;;;;;19.05;14.55;;;12.20;94.50;;;;;;5062316;28;20143;-58
2021/09/21 05:00:32;;;;;;;19.05;14.63;;;12.20;94.50;;;;;;5062716;28;20092;-59
2021/09/21 05:02:59;;;;;;;18.60;15.30;;;12.30;94.50;;;;;;5062155;28;20113;-59
2021/09/21 05:05:26;;;;;;;19.17;14.98;;;12.30;94.50;;;;;;5063009;28;20111;-60
2021/09/21 05:07:53;;;;;;;19.80;14.82;;;12.30;94.50;;;;;;5063228;28;20127;-59
2021/09/21 05:10:20;;;;;;;18.25;15.23;;;12.40;94.60;;;;;;5062804;28;20565;-59
2021/09/21 05:12:46;;;;;;;19.08;14.93;;;12.40;94.60;;;;;;5062664;28;20088;-59
2021/09/21 05:15:13;;;;;;;18.63;15.00;;;12.50;94.60;;;;;;5062657;28;20140;-59
2021/09/21 05:17:40;;;;;;;19.58;15.60;;;12.50;94.60;;;;;;5062580;28;20095;-59
2021/09/21 05:20:07;;;;;;;18.45;15.30;;;12.60;94.60;;;;;;5061718;28;20052;-60
2021/09/21 05:22:34;;;;;;;19.90;15.18;;;12.60;94.60;;;;;;5061049;28;20123;-60
2021/09/21 05:25:01;;;;;;;18.33;15.00;;;12.60;94.60;;;;;;5059635;28;20087;-59
2021/09/21 05:27:28;;;;;;;21.55;17.83;;;12.70;94.50;;;;;;5061425;28;20128;-59
2021/09/21 05:29:55;;;;;;;20.55;15.43;;;12.80;94.50;;;;;;5061288;28;20136;-60
2021/09/21 05:32:21;;;;;;;20.77;15.63;;;12.80;94.40;;;;;;5060607;28;20094;-60
2021/09/21 05:34:48;;;;;;;21.17;15.48;;;12.80;94.40;;;;;;5061386;28;20127;-60
2021/09/21 05:37:15;;;;;;;20.42;16.48;;;12.80;94.40;;;;;;5061170;28;20078;-59
2021/09/21 05:39:42;;;;;;;22.23;16.33;;;12.90;94.40;;;;;;5059351;28;20165;-59
2021/09/21 05:42:09;;;;;;;22.70;16.73;;;12.90;94.30;;;;;;5033759;28;20138;-60
2021/09/21 05:44:35;;;;;;;26.65;19.65;;;12.90;94.50;;;;;;5081693;28;20133;-60
2021/09/21 05:47:02;;;;;;;23.15;17.55;;;12.90;94.70;;;;;;5071054;28;20127;-60
2021/09/21 05:49:29;;;;;;;24.00;18.70;;;12.90;94.70;;;;;;5061908;28;20567;-60
2021/09/21 05:51:59;;;;;;;20.77;17.35;;;12.90;94.70;;;;;;5062691;28;20156;-60
2021/09/21 05:54:25;;;;;;;23.90;17.48;;;12.90;94.60;;;;;;5061191;28;20048;-59
2021/09/21 05:56:52;;;;;;;25.38;18.80;;;13.00;94.60;;;;;;5068821;28;20080;-60
2021/09/21 05:59:19;;;;;;;25.35;19.15;;;13.00;94.80;;;;;;5058325;28;20495;-60
2021/09/21 06:01:47;;;;;;;22.33;17.75;;;13.10;94.70;;;;;;5039431;28;20156;-60
2021/09/21 06:04:14;;;;;;;28.38;19.52;;;13.10;94.90;;;;;;5041563;28;20051;-60
2021/09/21 06:06:41;;;;;;;27.40;19.15;;;13.20;94.80;;;;;;5042163;28;20131;-60
2021/09/21 06:09:07;;;;;;;26.95;20.05;;;13.30;94.80;;;;;;5040266;28;20465;-60
2021/09/21 06:11:34;;;;;;;26.58;19.42;;;13.30;94.70;;;;;;5050787;28;20084;-60
2021/09/21 06:14:02;;;;;;;26.30;18.98;;;13.30;94.60;;;;;;5060676;28;20049;-60
2021/09/21 06:16:29;;;;;;;27.67;18.65;;;13.40;94.50;;;;;;5058771;28;20721;-60
2021/09/21 06:18:56;;;;;;;30.05;19.33;;;13.40;94.50;;;;;;5058469;28;20044;-60
2021/09/21 06:21:23;;;;;;;25.05;19.60;;;13.50;94.60;;;;;;5058843;28;20106;-60
2021/09/21 06:23:49;;;;;;;25.33;17.98;;;13.50;94.60;;;;;;5041413;28;20048;-61
2021/09/21 06:26:17;;;;;;;22.40;18.27;;;13.60;94.60;;;;;;5060496;28;20133;-60
2021/09/21 06:28:44;;;;;;;24.17;18.63;;;13.60;94.80;;;;;;5067039;28;20139;-59
2021/09/21 06:31:10;;;;;;;23.55;17.65;;;13.70;94.50;;;;;;5081830;28;20162;-60
2021/09/21 06:33:37;;;;;;;22.27;18.60;;;13.80;94.50;;;;;;5081469;28;20347;-60
2021/09/21 06:36:04;;;;;;;23.45;16.95;;;13.80;94.50;;;;;;5082227;28;20513;-60
2021/09/21 06:38:34;;;;;;;25.42;17.80;;;13.80;94.40;;;;;;5081291;28;20079;-60
2021/09/21 06:41:01;;;;;;;23.05;18.38;;;13.90;94.30;;;;;;5081956;28;20080;-60
2021/09/21 06:43:28;;;;;;;23.80;17.27;;;13.90;94.40;;;;;;5081974;28;20048;-60
2021/09/21 06:45:56;;;;;;;23.83;17.35;;;14.00;94.40;;;;;;5081991;28;20206;-59
2021/09/21 06:48:24;;;;;;;24.23;17.10;;;14.10;94.40;;;;;;5063873;28;20048;-60
2021/09/21 06:50:52;;;;;;;21.25;17.27;;;14.10;94.10;;;;;;5082146;28;20603;-60
2021/09/21 06:53:19;;;;;;;21.13;17.35;;;14.20;94.10;;;;;;5080885;28;20064;-60
2021/09/21 06:55:46;;;;;;;23.85;16.90;;;14.20;94.00;;;;;;5081815;28;20998;-60
2021/09/21 06:58:12;;;;;;;23.05;17.77;;;14.30;93.80;;;;;;5081123;28;20550;-60
2021/09/21 07:00:41;;;;;;;24.23;16.30;;;14.40;93.80;;;;;;5081013;28;20162;-60
2021/09/21 07:03:08;;;;;;;24.70;17.85;;;14.40;93.70;;;;;;5062747;28;20070;-60
2021/09/21 07:05:35;;;;;;;18.52;15.45;;;14.50;93.60;;;;;;5081830;28;20052;-60
2021/09/21 07:08:02;;;;;;;23.17;18.27;;;14.50;93.70;;;;;;5081743;28;20084;-61
2021/09/21 07:10:29;;;;;;;21.48;17.58;;;14.50;93.60;;;;;;5081006;28;20075;-60
2021/09/21 07:12:55;;;;;;;22.83;17.08;;;14.50;93.60;;;;;;5081029;28;20083;-60
2021/09/21 07:15:23;;;;;;;23.05;17.88;;;14.50;93.50;;;;;;5081084;28;20059;-60
2021/09/21 07:17:56;;;;;;;22.70;17.48;;;14.40;93.50;;;;;;5080819;28;20094;-60
2021/09/21 07:20:24;;;;;;;20.88;17.23;;;14.40;93.70;;;;;;5064054;28;20091;-60
2021/09/21 07:22:50;;;;;;;21.40;17.20;;;14.40;93.70;;;;;;5077011;28;20072;-60
2021/09/21 07:25:18;;;;;;;21.13;16.45;;;14.40;93.70;;;;;;5059969;28;20052;-59
2021/09/21 07:27:46;;;;;;;21.77;16.10;;;14.40;93.70;;;;;;5059697;28;20160;-59
2021/09/21 07:30:13;;;;;;;24.90;17.58;;;14.40;93.70;;;;;;5059634;28;20131;-59
2021/09/21 07:32:40;;;;;;;20.60;17.45;;;14.40;93.60;;;;;;5057412;28;20044;-60
2021/09/21 07:35:07;;;;;;;22.60;17.15;;;14.40;93.60;;;;;;5058578;28;20152;-59
2021/09/21 07:37:35;;;;;;;18.92;16.90;;;14.40;93.60;;;;;;5059896;28;20642;-59
2021/09/21 07:40:04;;;;;;;22.30;17.25;;;14.40;93.50;;;;;;5059327;28;20139;-59
2021/09/21 07:42:30;;;;;;;22.65;17.20;;;14.40;93.60;;;;;;5042225;28;20048;-59
2021/09/21 07:45:00;;;;;;;22.33;17.67;;;14.40;93.80;;;;;;5060610;28;20139;-60
2021/09/21 07:47:27;;;;;;;21.30;16.50;;;14.40;93.70;;;;;;5061238;28;20121;-59
2021/09/21 07:49:54;;;;;;;19.95;17.13;;;14.40;93.40;;;;;;5046388;28;20052;-59
2021/09/21 07:52:21;;;;;;;21.85;16.02;;;14.50;93.50;;;;;;5044865;28;20036;-59
2021/09/21 07:54:47;;;;;;;21.67;16.75;;;14.50;93.40;;;;;;5061314;28;20147;-59
2021/09/21 07:57:14;;;;;;;18.08;15.68;;;14.50;93.20;;;;;;5063372;28;20070;-60
2021/09/21 07:59:42;;;;;;;20.83;16.67;;;14.60;93.10;;;;;;5062699;28;20060;-59
2021/09/21 08:02:10;;;;;;;21.27;16.88;;;14.60;93.00;;;;;;5042037;28;20102;-60
2021/09/21 08:04:38;;;;;;;19.27;16.70;;;14.60;92.90;;;;;;5062618;28;20060;-59
2021/09/21 08:07:06;;;;;;;20.40;15.77;;;14.60;92.90;;;;;;5060941;28;20214;-59
2021/09/21 08:09:32;;;;;;;17.83;15.20;;;14.60;92.60;;;;;;5061435;28;20053;-59
2021/09/21 08:11:59;;;;;;;19.98;14.82;;;14.70;92.80;;;;;;5062886;28;20468;-59
2021/09/21 08:14:26;;;;;;;22.33;15.98;;;14.70;92.50;;;;;;5044297;28;20055;-58
2021/09/21 08:16:53;;;;;;;19.42;14.52;;;14.80;92.30;;;;;;5060698;28;20080;-59
2021/09/21 08:19:20;;;;;;;22.02;16.10;;;14.80;92.20;;;;;;5062806;28;20123;-59
2021/09/21 08:21:47;;;;;;;19.70;14.00;;;14.90;92.20;;;;;;5062876;28;20052;-59
2021/09/21 08:24:14;;;;;;;18.83;14.27;;;14.90;92.00;;;;;;5061302;28;20119;-58
2021/09/21 08:26:41;;;;;;;17.35;15.18;;;14.90;91.80;;;;;;5063700;28;20041;-59
2021/09/21 08:29:07;;;;;;;15.10;13.32;;;14.90;91.80;;;;;;5062278;28;20048;-60
2021/09/21 08:31:34;;;;;;;17.40;12.18;;;14.90;91.90;;;;;;5062172;28;20123;-59
2021/09/21 08:34:01;;;;;;;19.50;14.48;;;14.90;91.70;;;;;;5063097;28;20101;-59
2021/09/21 08:36:28;;;;;;;16.23;14.00;;;15.00;91.70;;;;;;5062973;28;20234;-60
2021/09/21 08:38:56;;;;;;;15.00;13.07;;;15.00;91.60;;;;;;5062646;28;20145;-60
2021/09/21 08:41:25;;;;;;;17.30;12.75;;;15.10;91.30;;;;;;5063206;28;20106;-60
2021/09/21 08:43:52;;;;;;;24.00;13.93;;;15.10;91.10;;;;;;5063520;28;20101;-59
2021/09/21 08:46:19;;;;;;;15.68;12.52;;;15.20;91.50;;;;;;5063322;28;20051;-60
2021/09/21 08:48:46;;;;;;;14.27;11.80;;;15.30;91.40;;;;;;5062216;28;20052;-60
2021/09/21 08:51:13;;;;;;;16.80;12.23;;;15.30;91.00;;;;;;5063688;28;20629;-60
2021/09/21 08:53:39;;;;;;;14.02;12.50;;;15.40;90.90;;;;;;5063013;28;20127;-60
2021/09/21 08:56:06;;;;;;;15.05;10.73;;;15.50;90.90;;;;;;5064255;28;20102;-60
2021/09/21 08:58:33;;;;;;;13.13;10.38;;;15.50;90.30;;;;;;5063190;28;20102;-59
2021/09/21 09:01:13;;;;;;;15.43;11.77;;;15.60;90.20;;;;;;5045633;28;20056;-60
2021/09/21 09:03:54;;;;;;;13.90;10.52;;;15.70;89.00;;;;;;5062550;28;20464;-60
2021/09/21 09:06:21;;;;;;;11.02;9.93;;;15.70;87.90;;;;;;5062974;28;20056;-60
2021/09/21 09:08:48;;;;;;;15.10;10.43;;;15.70;88.90;;;;;;5062815;28;20048;-60
2021/09/21 09:11:22;;;;;;;11.02;9.13;;;15.70;89.00;;;;;;5063854;28;20143;-59
2021/09/21 09:13:57;;;;;;;16.85;11.00;;;15.80;87.90;;;;;;5044422;28;20106;-60
2021/09/21 09:16:36;;;;;;;15.50;9.95;;;15.90;86.50;;;;;;5063272;28;20465;-60
2021/09/21 09:19:04;;;;;;;13.80;9.90;;;15.80;87.10;;;;;;5063228;28;20052;-60
2021/09/21 09:21:33;;;;;;;15.35;9.77;;;15.90;87.30;;;;;;5062755;28;20071;-59
2021/09/21 09:24:00;;;;;;;14.48;9.88;;;16.00;86.70;;;;;;5062077;28;20613;-60
2021/09/21 09:26:26;;;;;;;12.82;9.05;;;16.20;86.30;;;;;;5062923;28;20048;-60
2021/09/21 09:28:55;;;;;;;12.50;9.00;;;16.30;86.20;;;;;;5062344;28;20998;-60
2021/09/21 09:31:32;;;;;;;13.48;7.70;;;16.30;84.70;;;;;;5062807;28;20467;-59
2021/09/21 09:34:22;;;;;;;12.45;8.60;;;16.40;83.60;;;;;;5062809;28;20051;-59
2021/09/21 09:36:53;;;;;;;10.50;8.18;;;16.40;83.30;;;;;;5062894;28;20090;-59
2021/09/21 09:39:21;;;;;;;11.20;8.77;;;16.50;84.70;;;;;;5061355;28;20071;-59
2021/09/21 09:41:50;;;;;;;13.43;9.05;;;16.60;84.80;;;;;;5065893;28;20095;-59
2021/09/21 09:44:19;;;;;;;11.45;8.23;;;16.70;84.40;;;;;;5047657;28;20128;-59
2021/09/21 09:46:47;;;;;;;10.65;8.30;;;16.80;84.50;;;;;;5065456;28;20649;-59
2021/09/21 09:49:18;;;;;;;12.05;9.38;;;16.90;84.90;;;;;;5066016;28;20064;-59
2021/09/21 09:51:49;;;;;;;12.43;8.25;;;17.00;83.90;;;;;;5064458;28;20080;-59
2021/09/21 09:54:17;;;;;;;12.80;6.72;;;17.10;81.80;;;;;;5064822;28;20255;-59
2021/09/21 09:56:45;;;;;;;12.80;7.30;;;17.20;82.50;;;;;;5065994;28;20048;-59
2021/09/21 09:59:16;;;;;;;10.07;4.75;;;17.30;81.40;;;;;;5065316;28;20574;-60
2021/09/21 10:01:43;;;;;;;7.38;3.90;;;17.30;76.80;;;;;;5064716;28;20553;-59
2021/09/21 10:04:11;;;;;;;6.30;4.10;;;17.30;76.00;;;;;;5064926;28;20052;-60
2021/09/21 10:06:39;;;;;;;7.68;4.10;;;17.40;78.00;;;;;;5065331;28;20072;-60
2021/09/21 10:09:06;;;;;;;7.88;4.75;;;17.40;77.90;;;;;;5064963;28;20087;-60
2021/09/21 10:11:32;;;;;;;8.23;4.05;;;17.50;78.20;;;;;;5065255;28;20156;-60
2021/09/21 10:14:01;;;;;;;7.63;5.25;;;17.60;77.70;;;;;;5046539;28;20076;-60
2021/09/21 10:16:27;;;;;;;10.73;4.68;;;17.80;75.30;;;;;;5067034;28;20087;-60
2021/09/21 10:18:55;;;;;;;10.10;5.03;;;17.80;75.30;;;;;;5085320;28;20048;-60
2021/09/21 10:21:33;;;;;;;6.18;4.55;;;17.90;75.10;;;;;;5086466;28;20080;-60
2021/09/21 10:24:04;;;;;;;7.38;4.53;;;17.90;72.30;;;;;;5069124;28;20539;-60
2021/09/21 10:26:43;;;;;;;8.93;4.05;;;18.00;75.40;;;;;;5045045;28;20053;-60
2021/09/21 10:29:09;;;;;;;7.85;3.97;;;18.20;72.70;;;;;;5041796;28;20557;-60
2021/09/21 10:31:40;;;;;;;10.95;4.20;;;18.30;73.20;;;;;;5042452;28;20090;-60
2021/09/21 10:34:14;;;;;;;7.18;4.38;;;18.30;71.40;;;;;;5063485;28;20123;-60
2021/09/21 10:36:48;;;;;;;8.45;4.03;;;18.30;71.80;;;;;;5057713;28;20044;-60
2021/09/21 10:39:15;;;;;;;5.38;3.65;;;18.30;68.50;;;;;;5039737;28;20515;-60
2021/09/21 10:41:50;;;;;;;5.65;3.88;;;18.30;70.60;;;;;;5064910;28;20125;-59
2021/09/21 10:44:17;;;;;;;5.35;3.80;;;18.40;70.40;;;;;;5064456;28;20068;-60
2021/09/21 10:46:53;;;;;;;6.18;3.78;;;18.40;71.50;;;;;;5067094;28;20558;-59
2021/09/21 10:49:24;;;;;;;8.00;3.95;;;18.50;70.80;;;;;;5048049;28;20049;-59
2021/09/21 10:51:51;;;;;;;6.70;4.55;;;18.60;69.30;;;;;;5046727;28;20105;-60
2021/09/21 10:54:30;;;;;;;5.78;3.65;;;18.70;69.90;;;;;;5061949;28;20095;-59
2021/09/21 10:57:12;;;;;;;7.00;3.65;;;18.70;68.60;;;;;;5046483;28;20180;-60
2021/09/21 10:59:40;;;;;;;6.90;4.05;;;18.70;68.20;;;;;;5062545;28;20581;-60
2021/09/21 11:02:08;;;;;;;8.73;4.35;;;18.80;70.80;;;;;;5063587;28;20127;-60
2021/09/21 11:04:42;;;;;;;5.75;4.55;;;18.90;70.40;;;;;;5064388;28;20048;-60
2021/09/21 11:07:11;;;;;;;6.70;4.65;;;19.00;69.60;;;;;;5043797;28;20499;-60
2021/09/21 11:09:38;;;;;;;7.38;4.90;;;19.20;70.70;;;;;;5062875;28;20840;-60
2021/09/21 11:12:07;;;;;;;8.23;4.20;;;19.30;67.40;;;;;;5062871;28;20130;-60
2021/09/21 11:14:40;;;;;;;8.80;4.35;;;19.40;69.40;;;;;;5045783;28;20094;-60
2021/09/21 11:17:08;;;;;;;7.72;4.72;;;19.60;68.50;;;;;;5063565;28;20068;-60
2021/09/21 11:19:35;;;;;;;7.35;4.65;;;19.80;67.60;;;;;;5063777;28;20048;-58
2021/09/21 11:22:10;;;;;;;6.70;4.65;;;19.80;67.20;;;;;;5060229;28;20121;-60
2021/09/21 11:24:37;;;;;;;5.80;4.82;;;20.00;65.20;;;;;;5062720;28;20043;-60
2021/09/21 11:27:06;;;;;;;7.10;4.47;;;20.30;65.30;;;;;;5062385;28;20144;-59
2021/09/21 11:29:36;;;;;;;6.32;4.70;;;20.40;66.40;;;;;;5060566;28;20052;-59
2021/09/21 11:32:13;;;;;;;7.65;4.75;;;20.80;67.00;;;;;;5061302;28;20155;-60
2021/09/21 11:34:40;;;;;;;7.40;4.80;;;21.00;66.00;;;;;;5061510;28;20052;-60
2021/09/21 11:37:10;;;;;;;6.38;4.88;;;21.10;63.10;;;;;;5061453;28;20084;-60
2021/09/21 11:39:38;;;;;;;6.88;4.75;;;21.30;64.10;;;;;;5028779;28;20048;-60
2021/09/21 11:42:04;;;;;;;9.02;5.38;;;21.50;65.20;;;;;;5045920;28;20052;-60
2021/09/21 11:44:39;;;;;;;9.10;5.90;;;21.30;61.70;;;;;;5059514;28;20052;-59
2021/09/21 11:47:05;;;;;;;10.13;6.95;;;21.30;60.90;;;;;;5060700;28;20072;-61
2021/09/21 11:49:32;;;;;;;6.85;5.30;;;21.50;62.10;;;;;;5059891;28;20072;-60
2021/09/21 11:51:59;;;;;;;10.10;5.65;;;22.00;64.30;;;;;;5062335;28;20127;-60
2021/09/21 11:54:26;;;;;;;11.40;5.30;;;22.50;60.80;;;;;;5059914;28;20110;-60
2021/09/21 11:56:54;;;;;;;8.60;4.78;;;22.60;61.70;;;;;;5043675;28;20049;-60
2021/09/21 11:59:21;;;;;;;8.13;5.05;;;22.80;60.20;;;;;;5041882;28;20068;-60
2021/09/21 12:01:51;;;;;;;7.60;5.80;;;22.90;60.00;;;;;;5060003;28;20086;-60
2021/09/21 12:04:18;;;;;;;8.55;5.43;;;22.80;57.50;;;;;;5062988;28;20055;-61
2021/09/21 12:06:45;;;;;;;7.50;4.57;;;22.80;58.00;;;;;;5061401;28;20282;-60
2021/09/21 12:09:12;;;;;;;6.95;4.65;;;23.20;60.30;;;;;;5027015;28;20107;-61
2021/09/21 12:11:43;;;;;;;8.10;5.15;;;23.80;57.90;;;;;;5042546;28;20052;-60
2021/09/21 12:14:10;;;;;;;4.60;3.50;;;24.10;54.30;;;;;;5057454;28;20102;-61
2021/09/21 12:16:37;;;;;;;7.78;4.10;;;24.30;56.30;;;;;;5059591;28;20144;-61
2021/09/21 12:19:16;;;;;;;7.82;4.07;;;24.50;55.00;;;;;;5060411;28;20068;-61
2021/09/21 12:21:45;;;;;;;6.07;4.35;;;24.80;50.20;;;;;;5060005;28;20513;-60
2021/09/21 12:24:12;;;;;;;7.03;4.13;;;24.90;53.70;;;;;;5061048;28;20044;-61
2021/09/21 12:26:39;;;;;;;6.38;4.47;;;25.00;50.90;;;;;;5061733;28;20168;-61
2021/09/21 12:29:07;;;;;;;5.90;4.13;;;25.40;54.30;;;;;;5061087;28;20052;-61
2021/09/21 12:31:36;;;;;;;7.45;4.40;;;24.90;52.20;;;;;;5059142;28;20121;-60
2021/09/21 12:34:10;;;;;;;5.05;4.13;;;24.80;52.10;;;;;;5060936;28;20048;-61
2021/09/21 12:36:42;;;;;;;4.03;3.45;;;24.60;51.20;;;;;;5062901;28;20134;-60
2021/09/21 12:39:19;;;;;;;9.13;4.72;;;24.10;51.10;;;;;;5059523;28;20131;-60
2021/09/21 12:41:48;;;;;;;6.05;3.35;;;24.10;50.00;;;;;;5060199;28;20086;-60
2021/09/21 12:44:17;;;;;;;7.18;3.83;;;24.00;53.50;;;;;;5061350;28;20080;-59
2021/09/21 12:46:45;;;;;;;8.25;3.83;;;23.80;53.80;;;;;;5059736;28;20088;-59
2021/09/21 12:49:14;;;;;;;4.90;3.25;;;23.70;53.50;;;;;;5060510;28;20083;-59